CYNL

METAR CYNL 171700Z AUTO 28008KT 6SM OVC008 15/13 A2967 RMK AO1 SLP043
METAR
LOCATION
CYNL
DATE - TIME
171700Z
WIND
280 TRUE @ 8 KNOTS
VISIBILITY
6SM
RUNWAY VISUAL RANGE
NOT REPORTED
WEATHER
CLOUDINESS
OVC008
TEMP / DEWPOINT
15 ºC / 13 ºC
ALTIMETER
29.67 in. Hg
RECENT WEATHER
NOT REPORTED
WIND SHEAR
NOT REPORTED
REMARKS
RMK AO1 SLP043
SEA LEVEL PRESSURE: hPa

CYNL

METAR CYNL 171600Z AUTO 25006KT 9SM OVC008 14/13 A2966 RMK AO1 SLP042
METAR
LOCATION
CYNL
DATE - TIME
171600Z
WIND
250 TRUE @ 6 KNOTS
VISIBILITY
9SM
RUNWAY VISUAL RANGE
NOT REPORTED
WEATHER
CLOUDINESS
OVC008
TEMP / DEWPOINT
14 ºC / 13 ºC
ALTIMETER
29.66 in. Hg
RECENT WEATHER
NOT REPORTED
WIND SHEAR
NOT REPORTED
REMARKS
RMK AO1 SLP042
SEA LEVEL PRESSURE: hPa

CYNL

METAR CYNL 171500Z AUTO 26006KT 9SM OVC008 14/12 A2966 RMK AO1 SLP039
METAR
LOCATION
CYNL
DATE - TIME
171500Z
WIND
260 TRUE @ 6 KNOTS
VISIBILITY
9SM
RUNWAY VISUAL RANGE
NOT REPORTED
WEATHER
CLOUDINESS
OVC008
TEMP / DEWPOINT
14 ºC / 12 ºC
ALTIMETER
29.66 in. Hg
RECENT WEATHER
NOT REPORTED
WIND SHEAR
NOT REPORTED
REMARKS
RMK AO1 SLP039
SEA LEVEL PRESSURE: hPa

Your time UTC time
 
 
Weather data provided by AXYS Technologies Inc., www.axystechnologies.com
 
Station History